Terminal Aerodrome Forecast
Issued by NWS Cleveland, OH

Home | Current Version | Previous Version | Graphics & Text | Print | Product List | Glossary On
Versions: 1 2 3 4 5 6 7 8 9 10 11 12 13 14 15 16 17 18 19 20 21 22 23 24
000
FTUS41 KCLE 110855 AAB
TAFYNG
TAF AMD
KYNG 110855Z 1109/1206 26010KT 6SM -SN SCT015 OVC025
      TEMPO 1109/1112 6SM -FZDZ OVC012
     FM111800 18006KT P6SM SCT025 OVC035=

USA.gov is the U.S. government's official web portal to all federal, state and local government web resources and services.